Thunder radar more information blitzortung!


Radar de pluja more information rain snow radar


Visita la nostra xarxa de llocs de meteo:

Template documentation
and downloads

And another site



Wind From: 11-12-2017 11:00 Until: 14:59 warning for: Wind Level: Yellow info button

Pagina Historial Weather Underground text

Diari Resum Juny 10, 2016 Unitats:  Mètric    Imperial   Tant
« Previous Dia
SegĂźent Dia »
Diari Setmana Mensual Anual Personalitzada
  Maxima: Minima: Media:
Temperatura: 28.4 °C 18.2 °C 23.5 °C
Punt de rosada: 13.1 °C 10.1 °C 11.3 °C
Humitat: 62 % 36 % 47 %
Wind Speed: 29.6 km/h 0.0 km/h 8.8 km/h
RĂ fegues de vent: 29.6 km/h - -
Vent:- - ESE
Pression baro: 1011.7 hPa 1007.0 hPa -
Precipitacions: 0.0 mm    
Historical Graphs
 
 
Dades de taula per Juny 10, 2016
Temps Temperatura Punt de rosada Pression baro Vent Wind Speed RĂ fegues de vent Humitat Rainfall Rate (Hourly)
00:00 22.1 °C 10.9 °C 1011.7 hPa WSW 1.6 km/h 3.2 km/h 49 % 0.0 mm
00:05 19.6 °C 10.8 °C 1010.0 hPa Calm     57 % 0.0 mm
00:15 19.6 °C 10.8 °C 1010.0 hPa Calm     57 % 0.0 mm
00:25 19.4 °C 10.7 °C 1010.0 hPa Calm     57 % 0.0 mm
00:35 19.0 °C 10.3 °C 1010.0 hPa Calm     57 % 0.0 mm
00:45 18.8 °C 10.6 °C 1010.0 hPa Calm     59 % 0.0 mm
00:55 18.7 °C 10.8 °C 1010.0 hPa Calm   1.6 km/h 60 % 0.0 mm
01:05 18.6 °C 10.7 °C 1009.0 hPa Calm     60 % 0.0 mm
01:25 18.4 °C 10.5 °C 1010.0 hPa Calm     60 % 0.0 mm
01:35 18.2 °C 10.6 °C 1010.0 hPa Calm     61 % 0.0 mm
01:45 18.2 °C 10.6 °C 1010.0 hPa Calm     61 % 0.0 mm
01:55 18.2 °C 10.6 °C 1010.0 hPa Calm     61 % 0.0 mm
02:05 18.2 °C 10.8 °C 1010.0 hPa Calm     62 % 0.0 mm
02:15 18.3 °C 10.9 °C 1010.0 hPa Calm     62 % 0.0 mm
02:25 18.3 °C 10.9 °C 1010.0 hPa West 3.2 km/h 3.2 km/h 62 % 0.0 mm
02:35 18.4 °C 11.0 °C 1010.0 hPa WSW 1.6 km/h 3.2 km/h 62 % 0.0 mm
02:45 18.5 °C 11.1 °C 1010.0 hPa SW 1.6 km/h 3.2 km/h 62 % 0.0 mm
02:55 18.5 °C 11.1 °C 1010.0 hPa SW 1.6 km/h 1.6 km/h 62 % 0.0 mm
03:05 18.6 °C 11.2 °C 1010.0 hPa Calm   3.2 km/h 62 % 0.0 mm
03:15 18.7 °C 11.3 °C 1010.7 hPa WSW 1.6 km/h 3.2 km/h 62 % 0.0 mm
03:25 19.0 °C 11.1 °C 1010.7 hPa SW 3.2 km/h 4.8 km/h 60 % 0.0 mm
03:35 19.4 °C 11.4 °C 1010.0 hPa SW 3.2 km/h 3.2 km/h 60 % 0.0 mm
03:45 20.2 °C 11.9 °C 1010.0 hPa SW 1.6 km/h 3.2 km/h 59 % 0.0 mm
03:55 21.0 °C 12.4 °C 1010.0 hPa ENE 4.8 km/h 4.8 km/h 58 % 0.0 mm
04:05 21.3 °C 12.4 °C 1010.0 hPa NE 1.6 km/h 6.4 km/h 57 % 0.0 mm
04:15 22.0 °C 12.6 °C 1010.0 hPa NE 1.6 km/h 6.4 km/h 55 % 0.0 mm
04:25 22.6 °C 12.8 °C 1010.0 hPa ENE 4.8 km/h 4.8 km/h 54 % 0.0 mm
04:35 22.7 °C 12.6 °C 1010.0 hPa ENE 3.2 km/h 8.0 km/h 53 % 0.0 mm
04:45 23.2 °C 12.5 °C 1010.0 hPa East 4.8 km/h 9.7 km/h 51 % 0.0 mm
04:55 23.7 °C 12.7 °C 1010.0 hPa East 8.0 km/h 8.0 km/h 50 % 0.0 mm
05:05 23.9 °C 12.6 °C 1010.0 hPa East 8.0 km/h 8.0 km/h 49 % 0.0 mm
05:15 24.7 °C 12.9 °C 1010.0 hPa East 4.8 km/h 11.3 km/h 48 % 0.0 mm
05:25 24.9 °C 13.1 °C 1010.0 hPa East 4.8 km/h 9.7 km/h 48 % 0.0 mm
05:35 24.7 °C 12.9 °C 1010.0 hPa ENE 4.8 km/h 8.0 km/h 48 % 0.0 mm
05:45 25.3 °C 12.8 °C 1010.0 hPa East 1.6 km/h 9.7 km/h 46 % 0.0 mm
05:55 25.4 °C 12.6 °C 1010.0 hPa ESE 8.0 km/h 12.9 km/h 45 % 0.0 mm
10:57 25.4 °C 12.6 °C 1010.0 hPa NNE 13.0 km/h 13.0 km/h 45 % 0.0 mm
11:07 25.4 °C 12.3 °C 1010.0 hPa SE 11.1 km/h 11.1 km/h 44 % 0.0 mm
11:12 25.4 °C 12.3 °C 1010.0 hPa ESE 14.8 km/h 14.8 km/h 44 % 0.0 mm
11:17 25.3 °C 12.2 °C 1009.0 hPa ESE 11.1 km/h 11.1 km/h 44 % 0.0 mm
11:22 25.1 °C 12.0 °C 1009.0 hPa ESE 14.8 km/h 14.8 km/h 44 % 0.0 mm
11:27 25.2 °C 12.1 °C 1009.0 hPa SW 9.3 km/h 9.3 km/h 44 % 0.0 mm
11:32 25.2 °C 11.7 °C 1010.0 hPa South 13.0 km/h 13.0 km/h 43 % 0.0 mm
11:37 25.4 °C 11.9 °C 1010.0 hPa SE 9.3 km/h 9.3 km/h 43 % 0.0 mm
11:47 25.8 °C 12.3 °C 1010.0 hPa ESE 16.7 km/h 16.7 km/h 43 % 0.0 mm
11:52 26.1 °C 12.6 °C 1010.0 hPa ESE 13.7 km/h 13.7 km/h 43 % 0.0 mm
11:57 26.0 °C 12.1 °C 1010.0 hPa NNE 13.0 km/h 13.0 km/h 42 % 0.0 mm
12:02 26.5 °C 12.6 °C 1009.0 hPa ESE 13.0 km/h 13.0 km/h 42 % 0.0 mm
12:07 26.5 °C 12.6 °C 1009.0 hPa NW 13.0 km/h 13.0 km/h 42 % 0.0 mm
12:12 26.1 °C 12.2 °C 1009.0 hPa ESE 14.8 km/h 14.8 km/h 42 % 0.0 mm
12:17 26.4 °C 12.1 °C 1010.0 hPa ESE 16.7 km/h 16.7 km/h 41 % 0.0 mm
12:22 26.2 °C 11.9 °C 1010.0 hPa East 16.7 km/h 16.7 km/h 41 % 0.0 mm
12:27 26.6 °C 12.3 °C 1010.0 hPa South 9.3 km/h 9.3 km/h 41 % 0.0 mm
12:32 26.1 °C 11.8 °C 1010.0 hPa East 14.0 km/h 14.0 km/h 41 % 0.0 mm
12:37 26.2 °C 11.9 °C 1010.0 hPa ENE 13.0 km/h 13.0 km/h 41 % 0.0 mm
12:42 26.3 °C 12.0 °C 1010.0 hPa NE 9.3 km/h 9.3 km/h 41 % 0.0 mm
12:47 26.5 °C 12.2 °C 1010.0 hPa ESE 18.5 km/h 18.5 km/h 41 % 0.0 mm
12:57 26.6 °C 12.3 °C 1010.0 hPa ESE 18.5 km/h 18.5 km/h 41 % 0.0 mm
13:02 26.8 °C 12.4 °C 1010.0 hPa East 13.0 km/h 13.0 km/h 41 % 0.0 mm
13:07 27.0 °C 12.2 °C 1010.0 hPa NE 20.4 km/h 20.4 km/h 40 % 0.0 mm
13:12 27.5 °C 12.7 °C 1010.0 hPa ESE 9.3 km/h 9.3 km/h 40 % 0.0 mm
13:17 27.1 °C 12.3 °C 1010.0 hPa ESE 11.1 km/h 11.1 km/h 40 % 0.0 mm
13:27 27.1 °C 11.9 °C 1010.0 hPa East 14.8 km/h 14.8 km/h 39 % 0.0 mm
13:32 27.0 °C 11.9 °C 1010.0 hPa SW 13.0 km/h 13.0 km/h 39 % 0.0 mm
13:42 26.9 °C 12.2 °C 1010.0 hPa East 20.4 km/h 20.4 km/h 40 % 0.0 mm
13:47 27.0 °C 11.9 °C 1009.0 hPa East 14.8 km/h 14.8 km/h 39 % 0.0 mm
13:52 27.1 °C 11.9 °C 1009.0 hPa ESE 20.4 km/h 20.4 km/h 39 % 0.0 mm
14:02 27.1 °C 11.9 °C 1009.0 hPa ESE 20.4 km/h 20.4 km/h 39 % 0.0 mm
14:07 27.1 °C 11.9 °C 1009.0 hPa ESE 20.9 km/h 20.9 km/h 39 % 0.0 mm
14:12 27.1 °C 11.9 °C 1009.0 hPa NE 20.4 km/h 20.4 km/h 39 % 0.0 mm
14:17 27.1 °C 11.9 °C 1009.0 hPa ESE 15.8 km/h 15.8 km/h 39 % 0.0 mm
14:22 27.1 °C 11.9 °C 1009.0 hPa East 18.5 km/h 18.5 km/h 39 % 0.0 mm
14:27 27.6 °C 12.4 °C 1009.0 hPa East 18.5 km/h 18.5 km/h 39 % 0.0 mm
14:32 27.6 °C 12.4 °C 1009.0 hPa ESE 20.4 km/h 20.4 km/h 39 % 0.0 mm
14:37 27.6 °C 12.4 °C 1009.0 hPa ESE 20.4 km/h 20.4 km/h 39 % 0.0 mm
14:42 27.6 °C 12.4 °C 1009.0 hPa ENE 16.7 km/h 16.7 km/h 39 % 0.0 mm
14:52 27.6 °C 12.4 °C 1008.0 hPa ENE 16.4 km/h 16.4 km/h 39 % 0.0 mm
14:57 27.7 °C 12.1 °C 1008.0 hPa ESE 24.1 km/h 24.1 km/h 38 % 0.0 mm
15:02 27.8 °C 12.2 °C 1008.0 hPa East 29.6 km/h 29.6 km/h 38 % 0.0 mm
15:12 27.3 °C 11.7 °C 1008.0 hPa ENE 18.0 km/h 18.0 km/h 38 % 0.0 mm
15:17 27.8 °C 12.2 °C 1008.0 hPa SE 16.7 km/h 16.7 km/h 38 % 0.0 mm
15:37 27.8 °C 12.2 °C 1008.0 hPa ENE 16.1 km/h 16.1 km/h 38 % 0.0 mm
15:47 27.6 °C 12.0 °C 1008.0 hPa East 25.9 km/h 25.9 km/h 38 % 0.0 mm
15:52 27.2 °C 11.7 °C 1008.0 hPa South 22.2 km/h 22.2 km/h 38 % 0.0 mm
15:57 27.5 °C 11.9 °C 1008.0 hPa ESE 20.4 km/h 20.4 km/h 38 % 0.0 mm
16:07 26.9 °C 11.8 °C 1008.0 hPa ESE 19.5 km/h 19.5 km/h 39 % 0.0 mm
16:12 27.4 °C 12.2 °C 1008.0 hPa ESE 9.3 km/h 9.3 km/h 39 % 0.0 mm
16:17 27.5 °C 11.9 °C 1008.0 hPa East 13.0 km/h 13.7 km/h 38 % 0.0 mm
16:32 28.0 °C 12.3 °C 1008.0 hPa SW 18.5 km/h 18.5 km/h 38 % 0.0 mm
16:37 28.0 °C 11.9 °C 1008.0 hPa ESE 13.0 km/h 13.0 km/h 37 % 0.0 mm
16:42 27.6 °C 12.0 °C 1008.0 hPa East 24.1 km/h 24.1 km/h 38 % 0.0 mm
16:47 27.6 °C 12.0 °C 1008.0 hPa ESE 22.2 km/h 22.2 km/h 38 % 0.0 mm
16:52 27.6 °C 12.0 °C 1008.0 hPa NNW 14.8 km/h 14.8 km/h 38 % 0.0 mm
16:57 28.0 °C 11.9 °C 1008.0 hPa ESE 9.5 km/h 9.7 km/h 37 % 0.0 mm
17:02 28.1 °C 12.1 °C 1008.0 hPa SSE 13.0 km/h 13.0 km/h 37 % 0.0 mm
17:07 28.4 °C 12.3 °C 1008.0 hPa SE 14.8 km/h 14.8 km/h 37 % 0.0 mm
17:12 28.2 °C 12.1 °C 1008.0 hPa ESE 14.8 km/h 14.8 km/h 37 % 0.0 mm
17:17 28.2 °C 11.7 °C 1007.0 hPa ESE 13.0 km/h 13.0 km/h 36 % 0.0 mm
17:22 28.0 °C 11.9 °C 1007.0 hPa ESE 16.4 km/h 16.4 km/h 37 % 0.0 mm
17:27 27.4 °C 11.4 °C 1007.0 hPa ESE 24.1 km/h 24.1 km/h 37 % 0.0 mm
17:32 27.2 °C 11.2 °C 1007.0 hPa South 18.5 km/h 18.5 km/h 37 % 0.0 mm
17:38 27.5 °C 11.5 °C 1007.0 hPa ESE 16.7 km/h 16.7 km/h 37 % 0.0 mm
17:43 27.5 °C 11.5 °C 1007.0 hPa SE 11.1 km/h 11.1 km/h 37 % 0.0 mm
17:48 27.6 °C 11.6 °C 1008.0 hPa ESE 11.4 km/h 11.4 km/h 37 % 0.0 mm
17:53 27.5 °C 11.5 °C 1008.0 hPa ENE 13.0 km/h 13.0 km/h 37 % 0.0 mm
17:58 27.7 °C 11.7 °C 1008.0 hPa ESE 7.4 km/h 7.4 km/h 37 % 0.0 mm
18:08 27.2 °C 11.7 °C 1008.0 hPa ENE 16.7 km/h 16.7 km/h 38 % 0.0 mm
18:18 26.4 °C 11.3 °C 1008.0 hPa East 14.8 km/h 14.8 km/h 39 % 0.0 mm
18:23 26.0 °C 10.9 °C 1008.0 hPa ESE 9.3 km/h 9.3 km/h 39 % 0.0 mm
18:28 26.0 °C 10.9 °C 1008.0 hPa ESE 16.7 km/h 16.7 km/h 39 % 0.0 mm
18:33 26.2 °C 11.2 °C 1007.0 hPa ESE 7.4 km/h 7.4 km/h 39 % 0.0 mm
18:38 26.2 °C 11.2 °C 1007.0 hPa ESE 11.1 km/h 11.1 km/h 39 % 0.0 mm
18:48 26.2 °C 11.2 °C 1008.0 hPa SSE 11.1 km/h 11.1 km/h 39 % 0.0 mm
18:53 25.9 °C 10.9 °C 1008.0 hPa East 3.9 km/h 4.7 km/h 39 % 0.0 mm
18:58 25.9 °C 10.9 °C 1008.0 hPa ESE 14.8 km/h 14.8 km/h 39 % 0.0 mm
19:03 25.6 °C 11.0 °C 1008.0 hPa SSE 16.7 km/h 16.7 km/h 40 % 0.0 mm
19:08 25.8 °C 11.2 °C 1008.0 hPa South 9.3 km/h 9.3 km/h 40 % 0.0 mm
19:13 25.8 °C 11.2 °C 1008.0 hPa ESE 14.8 km/h 14.8 km/h 40 % 0.0 mm
19:15 20.6 °C 10.4 °C 1011.7 hPa ENE 1.6 km/h 6.4 km/h 52 % 0.0 mm
19:18 25.7 °C 11.1 °C 1008.0 hPa South 13.0 km/h 13.0 km/h 40 % 0.0 mm
19:25 20.4 °C 10.2 °C 1011.7 hPa North 1.6 km/h 6.4 km/h 52 % 0.0 mm
19:28 25.9 °C 11.3 °C 1008.0 hPa East 12.2 km/h 12.2 km/h 40 % 0.0 mm
19:33 25.6 °C 11.0 °C 1008.0 hPa SSE 14.8 km/h 14.8 km/h 40 % 0.0 mm
19:35 20.2 °C 10.3 °C 1011.7 hPa North 1.6 km/h 6.4 km/h 53 % 0.0 mm
19:38 25.6 °C 11.0 °C 1008.0 hPa South 7.4 km/h 7.4 km/h 40 % 0.0 mm
19:43 25.6 °C 11.0 °C 1008.0 hPa SSE 7.9 km/h 7.9 km/h 40 % 0.0 mm
19:45 20.1 °C 10.2 °C 1011.7 hPa North 1.6 km/h 6.4 km/h 53 % 0.0 mm
19:48 25.6 °C 11.0 °C 1008.0 hPa ESE 9.3 km/h 9.3 km/h 40 % 0.0 mm
19:53 25.4 °C 10.8 °C 1008.0 hPa East 13.0 km/h 13.0 km/h 40 % 0.0 mm
19:55 20.1 °C 10.2 °C 1011.7 hPa North 1.6 km/h 6.4 km/h 53 % 0.0 mm
19:58 25.4 °C 10.8 °C 1008.0 hPa ESE 13.0 km/h 13.0 km/h 40 % 0.0 mm
20:03 25.4 °C 10.8 °C 1008.0 hPa ESE 9.7 km/h 10.0 km/h 40 % 0.0 mm
20:05 20.0 °C 10.1 °C 1011.7 hPa North 1.6 km/h 6.4 km/h 53 % 0.0 mm
20:13 25.4 °C 10.8 °C 1008.0 hPa East 14.0 km/h 14.0 km/h 40 % 0.0 mm
20:15 20.0 °C 10.4 °C 1011.7 hPa North 1.6 km/h 6.4 km/h 54 % 0.0 mm
20:23 25.4 °C 10.8 °C 1008.0 hPa East 16.9 km/h 16.9 km/h 40 % 0.0 mm
20:25 19.9 °C 10.3 °C 1011.7 hPa North 1.6 km/h 6.4 km/h 54 % 0.0 mm
20:28 23.8 °C 10.1 °C 1008.0 hPa East 10.0 km/h 11.9 km/h 42 % 0.0 mm
20:33 23.8 °C 10.1 °C 1009.0 hPa ESE 13.0 km/h 13.0 km/h 42 % 0.0 mm
20:35 19.8 °C 10.2 °C 1011.7 hPa North 1.6 km/h 6.4 km/h 54 % 0.0 mm
20:38 23.4 °C 10.1 °C 1009.0 hPa ESE 16.9 km/h 16.9 km/h 43 % 0.0 mm
20:43 23.3 °C 10.3 °C 1009.0 hPa ESE 18.5 km/h 18.5 km/h 44 % 0.0 mm
20:45 19.7 °C 10.1 °C 1011.7 hPa North 1.6 km/h 6.4 km/h 54 % 0.0 mm
20:53 23.0 °C 10.4 °C 1010.0 hPa ESE 13.0 km/h 13.0 km/h 45 % 0.0 mm
20:55 19.9 °C 10.3 °C 1011.7 hPa North 1.6 km/h 6.4 km/h 54 % 0.0 mm
20:58 22.9 °C 10.7 °C 1010.0 hPa East 7.4 km/h 7.4 km/h 46 % 0.0 mm
21:03 22.8 °C 10.9 °C 1010.0 hPa ESE 14.8 km/h 14.8 km/h 47 % 0.0 mm
21:05 19.9 °C 10.3 °C 1011.7 hPa North 1.6 km/h 6.4 km/h 54 % 0.0 mm
21:08 22.7 °C 10.8 °C 1010.0 hPa ENE 9.3 km/h 9.3 km/h 47 % 0.0 mm
21:13 22.7 °C 10.8 °C 1010.0 hPa ENE 5.6 km/h 7.6 km/h 47 % 0.0 mm
21:15 19.9 °C 10.3 °C 1011.7 hPa North 1.6 km/h 6.4 km/h 54 % 0.0 mm
21:18 22.5 °C 10.9 °C 1010.0 hPa East 9.3 km/h 9.3 km/h 48 % 0.0 mm
21:23 22.5 °C 10.9 °C 1010.0 hPa East 7.9 km/h 7.9 km/h 48 % 0.0 mm
21:25 20.0 °C 10.4 °C 1011.7 hPa North 1.6 km/h 6.4 km/h 54 % 0.0 mm
21:28 22.5 °C 10.9 °C 1010.0 hPa East 7.4 km/h 7.4 km/h 48 % 0.0 mm
21:33 22.5 °C 10.9 °C 1010.0 hPa East 4.2 km/h 7.2 km/h 48 % 0.0 mm
21:35 20.0 °C 10.4 °C 1011.7 hPa Calm   6.4 km/h 54 % 0.0 mm
21:38 22.5 °C 10.9 °C 1010.0 hPa East 4.2 km/h 7.2 km/h 48 % 0.0 mm
21:43 22.5 °C 10.9 °C 1010.0 hPa East 4.2 km/h 7.2 km/h 48 % 0.0 mm
21:45 19.8 °C 10.2 °C 1011.7 hPa NW 1.6 km/h 1.6 km/h 54 % 0.0 mm
21:48 21.5 °C 11.2 °C 1010.0 hPa East 4.2 km/h 7.2 km/h 52 % 0.0 mm
21:53 21.5 °C 11.2 °C 1010.0 hPa East 4.2 km/h 7.2 km/h 52 % 0.0 mm
21:55 19.7 °C 10.1 °C 1011.7 hPa Calm     54 % 0.0 mm
22:03 21.3 °C 10.7 °C 1010.0 hPa East 4.2 km/h 7.2 km/h 51 % 0.0 mm
22:05 19.2 °C 10.2 °C 1010.7 hPa Calm     56 % 0.0 mm
22:08 21.2 °C 10.7 °C 1010.0 hPa East 4.2 km/h 7.2 km/h 51 % 0.0 mm
22:13 21.1 °C 10.6 °C 1010.0 hPa East 4.2 km/h 7.2 km/h 51 % 0.0 mm
22:15 18.9 °C 10.7 °C 1010.7 hPa Calm     59 % 0.0 mm
22:18 21.0 °C 10.5 °C 1010.7 hPa East 4.2 km/h 7.2 km/h 51 % 0.0 mm
22:23 21.0 °C 10.5 °C 1010.7 hPa East 4.2 km/h 7.2 km/h 51 % 0.0 mm
22:25 19.0 °C 10.8 °C 1010.7 hPa Calm     59 % 0.0 mm
22:28 21.0 °C 10.5 °C 1010.7 hPa East 4.2 km/h 7.2 km/h 51 % 0.0 mm
22:35 19.0 °C 10.8 °C 1010.7 hPa Calm     59 % 0.0 mm
22:38 20.9 °C 10.7 °C 1011.7 hPa East 4.2 km/h 7.2 km/h 52 % 0.0 mm
22:43 20.9 °C 10.7 °C 1011.7 hPa East 4.2 km/h 7.2 km/h 52 % 0.0 mm
22:45 19.1 °C 10.9 °C 1011.7 hPa Calm     59 % 0.0 mm
22:48 20.8 °C 10.6 °C 1011.7 hPa East 4.2 km/h 7.2 km/h 52 % 0.0 mm
22:53 20.8 °C 10.6 °C 1011.7 hPa East 4.2 km/h 7.2 km/h 52 % 0.0 mm
22:55 19.3 °C 10.8 °C 1011.7 hPa Calm     58 % 0.0 mm
22:58 20.8 °C 10.3 °C 1011.7 hPa East 4.2 km/h 7.2 km/h 51 % 0.0 mm
23:03 20.8 °C 10.6 °C 1011.7 hPa East 4.2 km/h 7.2 km/h 52 % 0.0 mm
23:05 19.3 °C 10.6 °C 1011.7 hPa Calm     57 % 0.0 mm
23:08 20.8 °C 10.6 °C 1011.7 hPa East 4.2 km/h 7.2 km/h 52 % 0.0 mm
23:13 20.8 °C 10.6 °C 1011.7 hPa East 4.2 km/h 7.2 km/h 52 % 0.0 mm
23:15 19.3 °C 10.6 °C 1010.7 hPa Calm     57 % 0.0 mm
23:18 20.7 °C 10.5 °C 1011.7 hPa East 4.2 km/h 7.2 km/h 52 % 0.0 mm
23:23 20.7 °C 10.5 °C 1011.7 hPa East 4.2 km/h 7.2 km/h 52 % 0.0 mm
23:25 19.3 °C 10.6 °C 1010.7 hPa Calm     57 % 0.0 mm
23:28 20.7 °C 10.5 °C 1011.7 hPa East 4.2 km/h 7.2 km/h 52 % 0.0 mm
23:33 20.7 °C 10.5 °C 1011.7 hPa East 4.2 km/h 7.2 km/h 52 % 0.0 mm
23:35 19.3 °C 10.6 °C 1010.7 hPa Calm     57 % 0.0 mm
23:38 20.7 °C 10.5 °C 1011.7 hPa East 4.2 km/h 7.2 km/h 52 % 0.0 mm
23:43 20.7 °C 10.5 °C 1011.7 hPa East 4.2 km/h 7.2 km/h 52 % 0.0 mm
23:45 19.1 °C 10.7 °C 1010.7 hPa Calm     58 % 0.0 mm
23:48 20.7 °C 10.5 °C 1011.7 hPa East 4.2 km/h 7.2 km/h 52 % 0.0 mm
23:53 20.7 °C 10.5 °C 1011.7 hPa East 4.2 km/h 7.2 km/h 52 % 0.0 mm
23:55 18.5 °C 11.1 °C 1010.7 hPa Calm     62 % 0.0 mm
23:58 20.8 °C 10.6 °C 1011.7 hPa East 4.2 km/h 7.2 km/h 52 % 0.0 mm
Meteo Sesrovires
Elogis d' Weather Underground - 3.5 mb

Guio original per  Jim McMurry - jmcmurry@mwt.net Adaptat per a la plantilla per  Wim van der Kuil - Leuven-Template.eu

Trobareu la nostra informacio del temps tambe a:

Weather Underground

AWEKAS